sensor_id;sensor_type;location;lat;lon;timestamp;temperature;humidity
27667;DHT22;15074;50.940;5.282;2022-12-18T00:00:55;-5.70;99.90
27667;DHT22;15074;50.940;5.282;2022-12-18T00:03:21;-5.50;99.90
27667;DHT22;15074;50.940;5.282;2022-12-18T00:05:50;-5.60;99.90
27667;DHT22;15074;50.940;5.282;2022-12-18T00:08:17;-5.30;99.90
27667;DHT22;15074;50.940;5.282;2022-12-18T00:10:43;-5.10;99.90
27667;DHT22;15074;50.940;5.282;2022-12-18T00:13:10;-5.00;99.90
27667;DHT22;15074;50.940;5.282;2022-12-18T00:15:37;-4.80;99.90
27667;DHT22;15074;50.940;5.282;2022-12-18T00:18:03;-4.90;99.90
27667;DHT22;15074;50.940;5.282;2022-12-18T00:20:29;-5.10;99.90
27667;DHT22;15074;50.940;5.282;2022-12-18T00:22:55;-5.30;99.90
27667;DHT22;15074;50.940;5.282;2022-12-18T00:25:21;-5.40;99.90
27667;DHT22;15074;50.940;5.282;2022-12-18T00:27:46;-5.30;99.90
27667;DHT22;15074;50.940;5.282;2022-12-18T00:30:12;-4.90;99.90
27667;DHT22;15074;50.940;5.282;2022-12-18T00:32:38;-4.80;99.90
27667;DHT22;15074;50.940;5.282;2022-12-18T00:35:05;-4.70;99.90
27667;DHT22;15074;50.940;5.282;2022-12-18T00:37:30;-4.80;99.90
27667;DHT22;15074;50.940;5.282;2022-12-18T00:39:58;-5.10;99.90
27667;DHT22;15074;50.940;5.282;2022-12-18T00:42:25;-5.40;99.90
27667;DHT22;15074;50.940;5.282;2022-12-18T00:45:10;-5.70;99.90
27667;DHT22;15074;50.940;5.282;2022-12-18T00:47:36;-6.10;99.90
27667;DHT22;15074;50.940;5.282;2022-12-18T00:50:04;-6.20;99.90
27667;DHT22;15074;50.940;5.282;2022-12-18T00:52:31;-6.10;99.90
27667;DHT22;15074;50.940;5.282;2022-12-18T00:54:57;-5.80;99.90
27667;DHT22;15074;50.940;5.282;2022-12-18T00:57:23;-5.50;99.90
27667;DHT22;15074;50.940;5.282;2022-12-18T00:59:55;-5.40;99.90
27667;DHT22;15074;50.940;5.282;2022-12-18T01:02:21;-5.70;99.90
27667;DHT22;15074;50.940;5.282;2022-12-18T01:04:48;-5.90;99.90
27667;DHT22;15074;50.940;5.282;2022-12-18T01:07:13;-5.90;99.90
27667;DHT22;15074;50.940;5.282;2022-12-18T01:09:41;-5.90;99.90
27667;DHT22;15074;50.940;5.282;2022-12-18T01:12:29;-6.00;99.90
27667;DHT22;15074;50.940;5.282;2022-12-18T01:15:00;-6.10;99.90
27667;DHT22;15074;50.940;5.282;2022-12-18T01:17:26;-6.20;99.90
27667;DHT22;15074;50.940;5.282;2022-12-18T01:19:52;-6.00;99.90
27667;DHT22;15074;50.940;5.282;2022-12-18T01:22:18;-5.70;99.90
27667;DHT22;15074;50.940;5.282;2022-12-18T01:24:44;-5.50;99.90
27667;DHT22;15074;50.940;5.282;2022-12-18T01:27:09;-5.30;99.90
27667;DHT22;15074;50.940;5.282;2022-12-18T01:29:35;-5.30;99.90
27667;DHT22;15074;50.940;5.282;2022-12-18T01:32:01;-5.20;99.90
27667;DHT22;15074;50.940;5.282;2022-12-18T01:34:26;-5.10;99.90
27667;DHT22;15074;50.940;5.282;2022-12-18T01:36:52;-5.10;99.90
27667;DHT22;15074;50.940;5.282;2022-12-18T01:39:18;-5.10;99.90
27667;DHT22;15074;50.940;5.282;2022-12-18T01:41:46;-5.20;99.90
27667;DHT22;15074;50.940;5.282;2022-12-18T01:45:05;-5.40;99.90
27667;DHT22;15074;50.940;5.282;2022-12-18T01:52:45;-5.60;99.90
27667;DHT22;15074;50.940;5.282;2022-12-18T01:55:12;-5.60;99.90
27667;DHT22;15074;50.940;5.282;2022-12-18T01:57:40;-5.70;99.90
27667;DHT22;15074;50.940;5.282;2022-12-18T02:00:10;-5.50;99.90
27667;DHT22;15074;50.940;5.282;2022-12-18T02:02:36;-5.40;99.90
27667;DHT22;15074;50.940;5.282;2022-12-18T02:05:03;-5.40;99.90
27667;DHT22;15074;50.940;5.282;2022-12-18T02:07:36;-5.40;99.90
27667;DHT22;15074;50.940;5.282;2022-12-18T02:16:10;-5.60;99.90
27667;DHT22;15074;50.940;5.282;2022-12-18T02:18:41;-5.50;99.90
27667;DHT22;15074;50.940;5.282;2022-12-18T02:27:06;-5.20;99.90
27667;DHT22;15074;50.940;5.282;2022-12-18T02:29:54;-5.00;99.90
27667;DHT22;15074;50.940;5.282;2022-12-18T02:32:28;-5.10;99.90
27667;DHT22;15074;50.940;5.282;2022-12-18T02:34:56;-4.90;99.90
27667;DHT22;15074;50.940;5.282;2022-12-18T02:37:24;-4.70;99.90
27667;DHT22;15074;50.940;5.282;2022-12-18T02:39:53;-4.80;99.90
27667;DHT22;15074;50.940;5.282;2022-12-18T02:42:20;-4.80;99.90
27667;DHT22;15074;50.940;5.282;2022-12-18T02:44:51;-4.80;99.90
27667;DHT22;15074;50.940;5.282;2022-12-18T02:47:21;-4.90;99.90
27667;DHT22;15074;50.940;5.282;2022-12-18T02:56:09;-5.40;99.90
27667;DHT22;15074;50.940;5.282;2022-12-18T03:07:05;-5.60;99.90
27667;DHT22;15074;50.940;5.282;2022-12-18T03:09:38;-5.50;99.90
27667;DHT22;15074;50.940;5.282;2022-12-18T03:12:20;-5.50;99.90
27667;DHT22;15074;50.940;5.282;2022-12-18T03:14:54;-5.50;99.90
27667;DHT22;15074;50.940;5.282;2022-12-18T03:17:23;-5.30;99.90
27667;DHT22;15074;50.940;5.282;2022-12-18T03:19:52;-5.20;99.90
27667;DHT22;15074;50.940;5.282;2022-12-18T03:22:20;-5.20;99.90
27667;DHT22;15074;50.940;5.282;2022-12-18T03:24:48;-5.20;99.90
27667;DHT22;15074;50.940;5.282;2022-12-18T03:27:16;-5.20;99.90
27667;DHT22;15074;50.940;5.282;2022-12-18T03:29:48;-5.30;99.90
27667;DHT22;15074;50.940;5.282;2022-12-18T03:32:30;-5.20;99.90
27667;DHT22;15074;50.940;5.282;2022-12-18T03:34:59;-5.00;99.90
27667;DHT22;15074;50.940;5.282;2022-12-18T03:37:26;-5.00;99.90
27667;DHT22;15074;50.940;5.282;2022-12-18T03:39:52;-5.00;99.90
27667;DHT22;15074;50.940;5.282;2022-12-18T03:42:29;-5.00;99.90
27667;DHT22;15074;50.940;5.282;2022-12-18T03:50:24;-5.00;99.90
27667;DHT22;15074;50.940;5.282;2022-12-18T03:55:39;-5.00;99.90
27667;DHT22;15074;50.940;5.282;2022-12-18T03:58:07;-5.10;99.90
27667;DHT22;15074;50.940;5.282;2022-12-18T04:00:42;-5.20;99.90
27667;DHT22;15074;50.940;5.282;2022-12-18T04:03:08;-5.30;99.90
27667;DHT22;15074;50.940;5.282;2022-12-18T04:05:36;-5.40;99.90
27667;DHT22;15074;50.940;5.282;2022-12-18T04:08:03;-5.60;99.90
27667;DHT22;15074;50.940;5.282;2022-12-18T04:10:29;-5.80;99.90
27667;DHT22;15074;50.940;5.282;2022-12-18T04:12:57;-5.90;99.90
27667;DHT22;15074;50.940;5.282;2022-12-18T04:15:23;-6.00;99.90
27667;DHT22;15074;50.940;5.282;2022-12-18T04:17:50;-6.20;99.90
27667;DHT22;15074;50.940;5.282;2022-12-18T04:20:16;-6.40;99.90
27667;DHT22;15074;50.940;5.282;2022-12-18T04:22:42;-6.30;99.90
27667;DHT22;15074;50.940;5.282;2022-12-18T04:25:08;-6.20;99.90
27667;DHT22;15074;50.940;5.282;2022-12-18T04:27:34;-6.40;99.90
27667;DHT22;15074;50.940;5.282;2022-12-18T04:30:00;-6.20;99.90
27667;DHT22;15074;50.940;5.282;2022-12-18T04:32:26;-6.10;99.90
27667;DHT22;15074;50.940;5.282;2022-12-18T04:34:51;-6.00;99.90
27667;DHT22;15074;50.940;5.282;2022-12-18T04:37:17;-5.90;99.90
27667;DHT22;15074;50.940;5.282;2022-12-18T04:39:44;-5.70;99.90
27667;DHT22;15074;50.940;5.282;2022-12-18T04:42:11;-5.70;99.90
27667;DHT22;15074;50.940;5.282;2022-12-18T04:44:36;-5.70;99.90
27667;DHT22;15074;50.940;5.282;2022-12-18T04:47:03;-5.70;99.90
27667;DHT22;15074;50.940;5.282;2022-12-18T04:49:33;-5.70;99.90
27667;DHT22;15074;50.940;5.282;2022-12-18T04:52:00;-5.70;99.90
27667;DHT22;15074;50.940;5.282;2022-12-18T04:54:25;-5.80;99.90
27667;DHT22;15074;50.940;5.282;2022-12-18T04:56:51;-5.70;99.90
27667;DHT22;15074;50.940;5.282;2022-12-18T04:59:17;-5.70;99.90
27667;DHT22;15074;50.940;5.282;2022-12-18T05:01:42;-5.80;99.90
27667;DHT22;15074;50.940;5.282;2022-12-18T05:04:08;-5.70;99.90
27667;DHT22;15074;50.940;5.282;2022-12-18T05:06:33;-5.80;99.90
27667;DHT22;15074;50.940;5.282;2022-12-18T05:08:59;-5.60;99.90
27667;DHT22;15074;50.940;5.282;2022-12-18T05:11:25;-5.80;99.90
27667;DHT22;15074;50.940;5.282;2022-12-18T05:13:52;-5.80;99.90
27667;DHT22;15074;50.940;5.282;2022-12-18T05:16:18;-6.00;99.90
27667;DHT22;15074;50.940;5.282;2022-12-18T05:18:43;-6.00;99.90
27667;DHT22;15074;50.940;5.282;2022-12-18T05:21:09;-6.30;99.90
27667;DHT22;15074;50.940;5.282;2022-12-18T05:23:35;-6.30;99.90
27667;DHT22;15074;50.940;5.282;2022-12-18T05:26:03;-6.40;99.90
27667;DHT22;15074;50.940;5.282;2022-12-18T05:28:30;-6.40;99.90
27667;DHT22;15074;50.940;5.282;2022-12-18T05:30:58;-6.30;99.90
27667;DHT22;15074;50.940;5.282;2022-12-18T05:33:26;-6.20;99.90
27667;DHT22;15074;50.940;5.282;2022-12-18T05:35:56;-6.10;99.90
27667;DHT22;15074;50.940;5.282;2022-12-18T05:38:23;-6.10;99.90
27667;DHT22;15074;50.940;5.282;2022-12-18T05:40:50;-6.20;99.90
27667;DHT22;15074;50.940;5.282;2022-12-18T05:43:16;-6.30;99.90
27667;DHT22;15074;50.940;5.282;2022-12-18T05:45:42;-6.40;99.90
27667;DHT22;15074;50.940;5.282;2022-12-18T05:48:08;-6.30;99.90
27667;DHT22;15074;50.940;5.282;2022-12-18T05:50:39;-6.20;99.90
27667;DHT22;15074;50.940;5.282;2022-12-18T05:53:05;-6.30;99.90
27667;DHT22;15074;50.940;5.282;2022-12-18T05:55:39;-6.30;99.90
27667;DHT22;15074;50.940;5.282;2022-12-18T05:58:06;-6.30;99.90
27667;DHT22;15074;50.940;5.282;2022-12-18T06:00:34;-6.30;99.90
27667;DHT22;15074;50.940;5.282;2022-12-18T06:03:01;-6.20;99.90
27667;DHT22;15074;50.940;5.282;2022-12-18T06:05:27;-6.20;99.90
27667;DHT22;15074;50.940;5.282;2022-12-18T06:07:52;-6.20;99.90
27667;DHT22;15074;50.940;5.282;2022-12-18T06:10:18;-6.20;99.90
27667;DHT22;15074;50.940;5.282;2022-12-18T06:12:44;-6.40;99.90
27667;DHT22;15074;50.940;5.282;2022-12-18T06:15:10;-6.40;99.90
27667;DHT22;15074;50.940;5.282;2022-12-18T06:17:36;-6.40;99.90
27667;DHT22;15074;50.940;5.282;2022-12-18T06:20:02;-6.30;99.90
27667;DHT22;15074;50.940;5.282;2022-12-18T06:22:40;-6.10;99.90
27667;DHT22;15074;50.940;5.282;2022-12-18T06:25:19;-5.90;99.90
27667;DHT22;15074;50.940;5.282;2022-12-18T06:30:54;-5.70;99.90
27667;DHT22;15074;50.940;5.282;2022-12-18T06:33:28;-5.70;99.90
27667;DHT22;15074;50.940;5.282;2022-12-18T06:36:16;-5.90;99.90
27667;DHT22;15074;50.940;5.282;2022-12-18T06:38:51;-5.90;99.90
27667;DHT22;15074;50.940;5.282;2022-12-18T06:41:39;-5.80;99.90
27667;DHT22;15074;50.940;5.282;2022-12-18T06:44:04;-5.70;99.90
27667;DHT22;15074;50.940;5.282;2022-12-18T06:46:31;-5.60;99.90
27667;DHT22;15074;50.940;5.282;2022-12-18T06:48:57;-5.50;99.90
27667;DHT22;15074;50.940;5.282;2022-12-18T06:51:23;-5.40;99.90
27667;DHT22;15074;50.940;5.282;2022-12-18T06:53:49;-5.60;99.90
27667;DHT22;15074;50.940;5.282;2022-12-18T06:56:15;-5.60;99.90
27667;DHT22;15074;50.940;5.282;2022-12-18T06:58:41;-5.60;99.90
27667;DHT22;15074;50.940;5.282;2022-12-18T07:01:09;-5.60;99.90
27667;DHT22;15074;50.940;5.282;2022-12-18T07:03:35;-5.50;99.90
27667;DHT22;15074;50.940;5.282;2022-12-18T07:06:01;-5.50;99.90
27667;DHT22;15074;50.940;5.282;2022-12-18T07:08:29;-5.60;99.90
27667;DHT22;15074;50.940;5.282;2022-12-18T07:10:54;-5.60;99.90
27667;DHT22;15074;50.940;5.282;2022-12-18T07:13:20;-5.70;99.90
27667;DHT22;15074;50.940;5.282;2022-12-18T07:15:46;-5.90;99.90
27667;DHT22;15074;50.940;5.282;2022-12-18T07:18:11;-5.90;99.90
27667;DHT22;15074;50.940;5.282;2022-12-18T07:20:37;-6.10;99.90
27667;DHT22;15074;50.940;5.282;2022-12-18T07:23:04;-6.20;99.90
27667;DHT22;15074;50.940;5.282;2022-12-18T07:25:37;-6.30;99.90
27667;DHT22;15074;50.940;5.282;2022-12-18T07:28:03;-6.20;99.90
27667;DHT22;15074;50.940;5.282;2022-12-18T07:30:29;-6.20;99.90
27667;DHT22;15074;50.940;5.282;2022-12-18T07:32:55;-6.20;99.90
27667;DHT22;15074;50.940;5.282;2022-12-18T07:35:20;-6.10;99.90
27667;DHT22;15074;50.940;5.282;2022-12-18T07:37:47;-6.20;99.90
27667;DHT22;15074;50.940;5.282;2022-12-18T07:40:13;-6.10;99.90
27667;DHT22;15074;50.940;5.282;2022-12-18T07:42:39;-6.00;99.90
27667;DHT22;15074;50.940;5.282;2022-12-18T07:45:05;-6.10;99.90
27667;DHT22;15074;50.940;5.282;2022-12-18T07:47:31;-5.90;99.90
27667;DHT22;15074;50.940;5.282;2022-12-18T07:49:59;-5.90;99.90
27667;DHT22;15074;50.940;5.282;2022-12-18T07:52:25;-5.90;99.90
27667;DHT22;15074;50.940;5.282;2022-12-18T07:55:02;-5.80;99.90
27667;DHT22;15074;50.940;5.282;2022-12-18T07:57:30;-5.80;99.90
27667;DHT22;15074;50.940;5.282;2022-12-18T07:59:55;-5.60;99.90
27667;DHT22;15074;50.940;5.282;2022-12-18T08:02:30;-5.70;99.90
27667;DHT22;15074;50.940;5.282;2022-12-18T08:04:56;-5.60;99.90
27667;DHT22;15074;50.940;5.282;2022-12-18T08:07:27;-5.60;99.90
27667;DHT22;15074;50.940;5.282;2022-12-18T08:09:53;-5.50;99.90
27667;DHT22;15074;50.940;5.282;2022-12-18T08:12:40;-5.40;99.90
27667;DHT22;15074;50.940;5.282;2022-12-18T08:15:06;-5.40;99.90
27667;DHT22;15074;50.940;5.282;2022-12-18T08:17:33;-5.50;99.90
27667;DHT22;15074;50.940;5.282;2022-12-18T08:19:58;-5.50;99.90
27667;DHT22;15074;50.940;5.282;2022-12-18T08:22:24;-5.40;99.90
27667;DHT22;15074;50.940;5.282;2022-12-18T08:24:50;-5.30;99.90
27667;DHT22;15074;50.940;5.282;2022-12-18T08:27:16;-5.20;99.90
27667;DHT22;15074;50.940;5.282;2022-12-18T08:29:41;-5.10;99.90
27667;DHT22;15074;50.940;5.282;2022-12-18T08:32:07;-5.00;99.90
27667;DHT22;15074;50.940;5.282;2022-12-18T08:34:33;-4.70;99.90
27667;DHT22;15074;50.940;5.282;2022-12-18T08:36:59;-4.50;99.90
27667;DHT22;15074;50.940;5.282;2022-12-18T08:39:24;-4.60;99.90
27667;DHT22;15074;50.940;5.282;2022-12-18T08:41:50;-4.70;99.90
27667;DHT22;15074;50.940;5.282;2022-12-18T08:44:34;-4.80;99.90
27667;DHT22;15074;50.940;5.282;2022-12-18T08:47:02;-4.60;99.90
27667;DHT22;15074;50.940;5.282;2022-12-18T08:49:28;-4.60;99.90
27667;DHT22;15074;50.940;5.282;2022-12-18T08:51:55;-4.40;99.90
27667;DHT22;15074;50.940;5.282;2022-12-18T08:54:22;-4.30;99.90
27667;DHT22;15074;50.940;5.282;2022-12-18T08:56:48;-4.10;99.90
27667;DHT22;15074;50.940;5.282;2022-12-18T08:59:15;-4.00;99.90
27667;DHT22;15074;50.940;5.282;2022-12-18T09:01:42;-3.80;99.90
27667;DHT22;15074;50.940;5.282;2022-12-18T09:04:11;-3.40;99.90
27667;DHT22;15074;50.940;5.282;2022-12-18T09:06:37;-3.30;99.90
27667;DHT22;15074;50.940;5.282;2022-12-18T09:09:03;-3.30;99.90
27667;DHT22;15074;50.940;5.282;2022-12-18T09:11:30;-3.30;99.90
27667;DHT22;15074;50.940;5.282;2022-12-18T09:13:57;-3.10;99.90
27667;DHT22;15074;50.940;5.282;2022-12-18T09:16:25;-2.90;99.90
27667;DHT22;15074;50.940;5.282;2022-12-18T09:18:52;-2.80;99.90
27667;DHT22;15074;50.940;5.282;2022-12-18T09:21:32;-2.70;99.90
27667;DHT22;15074;50.940;5.282;2022-12-18T09:23:59;-2.50;99.90
27667;DHT22;15074;50.940;5.282;2022-12-18T09:26:26;-2.40;99.90
27667;DHT22;15074;50.940;5.282;2022-12-18T09:28:52;-2.10;99.90
27667;DHT22;15074;50.940;5.282;2022-12-18T09:31:19;-2.30;99.90
27667;DHT22;15074;50.940;5.282;2022-12-18T09:33:46;-2.60;99.90
27667;DHT22;15074;50.940;5.282;2022-12-18T09:36:14;-2.70;99.90
27667;DHT22;15074;50.940;5.282;2022-12-18T09:38:39;-2.70;99.90
27667;DHT22;15074;50.940;5.282;2022-12-18T09:41:33;-2.60;99.90
27667;DHT22;15074;50.940;5.282;2022-12-18T09:46:53;-2.60;99.90
27667;DHT22;15074;50.940;5.282;2022-12-18T09:49:22;-2.40;99.90
27667;DHT22;15074;50.940;5.282;2022-12-18T09:54:39;-1.60;99.90
27667;DHT22;15074;50.940;5.282;2022-12-18T09:57:05;-1.60;99.90
27667;DHT22;15074;50.940;5.282;2022-12-18T09:59:38;-1.30;99.90
27667;DHT22;15074;50.940;5.282;2022-12-18T10:02:23;-1.60;99.90
27667;DHT22;15074;50.940;5.282;2022-12-18T10:05:06;-1.60;99.90
27667;DHT22;15074;50.940;5.282;2022-12-18T10:13:01;-1.80;99.90
27667;DHT22;15074;50.940;5.282;2022-12-18T10:15:34;-1.80;99.90
27667;DHT22;15074;50.940;5.282;2022-12-18T10:18:36;-2.00;99.90
27667;DHT22;15074;50.940;5.282;2022-12-18T10:21:10;-2.00;99.90
27667;DHT22;15074;50.940;5.282;2022-12-18T10:23:41;-2.10;99.90
27667;DHT22;15074;50.940;5.282;2022-12-18T10:26:11;-2.00;99.90
27667;DHT22;15074;50.940;5.282;2022-12-18T10:28:39;-2.10;99.90
27667;DHT22;15074;50.940;5.282;2022-12-18T10:31:25;-1.90;99.90
27667;DHT22;15074;50.940;5.282;2022-12-18T10:33:53;-1.90;99.90
27667;DHT22;15074;50.940;5.282;2022-12-18T10:36:19;-1.90;99.90
27667;DHT22;15074;50.940;5.282;2022-12-18T10:38:45;-1.90;99.90
27667;DHT22;15074;50.940;5.282;2022-12-18T10:43:43;-1.40;99.90
27667;DHT22;15074;50.940;5.282;2022-12-18T10:46:12;-1.30;99.90
27667;DHT22;15074;50.940;5.282;2022-12-18T10:48:55;-1.10;99.90
27667;DHT22;15074;50.940;5.282;2022-12-18T10:51:30;-1.10;99.90
27667;DHT22;15074;50.940;5.282;2022-12-18T10:54:13;-0.90;99.90
27667;DHT22;15074;50.940;5.282;2022-12-18T10:56:40;-0.90;99.90
27667;DHT22;15074;50.940;5.282;2022-12-18T10:59:11;-1.00;99.90
27667;DHT22;15074;50.940;5.282;2022-12-18T11:01:47;-0.90;99.90
27667;DHT22;15074;50.940;5.282;2022-12-18T11:04:20;-1.00;99.90
27667;DHT22;15074;50.940;5.282;2022-12-18T11:09:30;-1.20;99.90
27667;DHT22;15074;50.940;5.282;2022-12-18T11:11:59;-1.20;99.90
27667;DHT22;15074;50.940;5.282;2022-12-18T11:16:54;-1.10;99.90
27667;DHT22;15074;50.940;5.282;2022-12-18T11:19:36;-1.10;99.90
27667;DHT22;15074;50.940;5.282;2022-12-18T11:22:21;-0.90;99.90
27667;DHT22;15074;50.940;5.282;2022-12-18T11:25:00;-0.90;99.90
27667;DHT22;15074;50.940;5.282;2022-12-18T11:27:27;-0.90;99.90
27667;DHT22;15074;50.940;5.282;2022-12-18T11:30:20;-0.90;99.90
27667;DHT22;15074;50.940;5.282;2022-12-18T11:32:49;-0.80;99.90
27667;DHT22;15074;50.940;5.282;2022-12-18T11:35:58;-0.80;99.90
27667;DHT22;15074;50.940;5.282;2022-12-18T11:38:41;-0.70;99.90
27667;DHT22;15074;50.940;5.282;2022-12-18T11:44:09;-0.40;99.90
27667;DHT22;15074;50.940;5.282;2022-12-18T11:50:03;-0.30;99.90
27667;DHT22;15074;50.940;5.282;2022-12-18T11:52:40;-0.30;99.90
27667;DHT22;15074;50.940;5.282;2022-12-18T12:09:23;0.10;99.90
27667;DHT22;15074;50.940;5.282;2022-12-18T12:17:11;0.00;99.90
27667;DHT22;15074;50.940;5.282;2022-12-18T12:19:54;0.00;99.90
27667;DHT22;15074;50.940;5.282;2022-12-18T12:34:01;-0.20;99.90
27667;DHT22;15074;50.940;5.282;2022-12-18T12:39:37;-0.10;99.90
27667;DHT22;15074;50.940;5.282;2022-12-18T12:42:17;-0.10;99.90
27667;DHT22;15074;50.940;5.282;2022-12-18T12:45:06;-0.10;99.90
27667;DHT22;15074;50.940;5.282;2022-12-18T12:47:42;-0.10;99.90
27667;DHT22;15074;50.940;5.282;2022-12-18T12:50:16;-0.10;99.90
27667;DHT22;15074;50.940;5.282;2022-12-18T12:52:49;-0.10;99.90
27667;DHT22;15074;50.940;5.282;2022-12-18T12:55:20;0.00;99.90
27667;DHT22;15074;50.940;5.282;2022-12-18T12:58:06;0.00;99.90
27667;DHT22;15074;50.940;5.282;2022-12-18T13:00:41;0.10;99.90
27667;DHT22;15074;50.940;5.282;2022-12-18T13:03:22;0.20;99.90
27667;DHT22;15074;50.940;5.282;2022-12-18T13:05:54;0.20;99.90
27667;DHT22;15074;50.940;5.282;2022-12-18T13:08:30;0.30;99.90
27667;DHT22;15074;50.940;5.282;2022-12-18T13:10:59;0.30;99.90
27667;DHT22;15074;50.940;5.282;2022-12-18T13:13:55;0.30;99.90
27667;DHT22;15074;50.940;5.282;2022-12-18T13:16:25;0.40;99.90
27667;DHT22;15074;50.940;5.282;2022-12-18T13:18:54;0.50;99.90
27667;DHT22;15074;50.940;5.282;2022-12-18T13:21:32;0.50;99.90
27667;DHT22;15074;50.940;5.282;2022-12-18T13:24:22;0.60;99.90
27667;DHT22;15074;50.940;5.282;2022-12-18T13:26:48;0.60;99.90
27667;DHT22;15074;50.940;5.282;2022-12-18T13:29:44;0.70;99.90
27667;DHT22;15074;50.940;5.282;2022-12-18T13:32:22;0.60;99.90
27667;DHT22;15074;50.940;5.282;2022-12-18T13:37:51;0.70;99.90
27667;DHT22;15074;50.940;5.282;2022-12-18T13:48:52;1.00;99.90
27667;DHT22;15074;50.940;5.282;2022-12-18T13:51:19;1.00;99.90
27667;DHT22;15074;50.940;5.282;2022-12-18T13:54:00;0.90;99.90
27667;DHT22;15074;50.940;5.282;2022-12-18T13:56:30;0.90;99.90
27667;DHT22;15074;50.940;5.282;2022-12-18T13:59:33;0.90;99.90
27667;DHT22;15074;50.940;5.282;2022-12-18T14:02:04;0.90;99.90
27667;DHT22;15074;50.940;5.282;2022-12-18T14:04:35;0.70;99.90
27667;DHT22;15074;50.940;5.282;2022-12-18T14:09:34;0.60;99.90
27667;DHT22;15074;50.940;5.282;2022-12-18T14:12:01;0.50;99.90
27667;DHT22;15074;50.940;5.282;2022-12-18T14:14:47;0.50;99.90
27667;DHT22;15074;50.940;5.282;2022-12-18T14:17:15;0.40;99.90
27667;DHT22;15074;50.940;5.282;2022-12-18T14:19:47;0.40;99.90
27667;DHT22;15074;50.940;5.282;2022-12-18T14:22:19;0.40;99.90
27667;DHT22;15074;50.940;5.282;2022-12-18T14:24:45;0.40;99.90
27667;DHT22;15074;50.940;5.282;2022-12-18T14:27:20;0.40;99.90
27667;DHT22;15074;50.940;5.282;2022-12-18T14:29:47;0.50;99.90
27667;DHT22;15074;50.940;5.282;2022-12-18T14:32:14;0.50;99.90
27667;DHT22;15074;50.940;5.282;2022-12-18T14:34:49;0.60;99.90
27667;DHT22;15074;50.940;5.282;2022-12-18T14:37:20;0.60;99.90
27667;DHT22;15074;50.940;5.282;2022-12-18T14:39:58;0.60;99.90
27667;DHT22;15074;50.940;5.282;2022-12-18T14:42:25;0.70;99.90
27667;DHT22;15074;50.940;5.282;2022-12-18T14:47:59;0.80;99.90
27667;DHT22;15074;50.940;5.282;2022-12-18T14:50:25;0.80;99.90
27667;DHT22;15074;50.940;5.282;2022-12-18T14:52:52;0.80;99.90
27667;DHT22;15074;50.940;5.282;2022-12-18T14:55:19;0.80;99.90
27667;DHT22;15074;50.940;5.282;2022-12-18T14:57:45;0.80;99.90
27667;DHT22;15074;50.940;5.282;2022-12-18T15:00:17;0.70;99.90
27667;DHT22;15074;50.940;5.282;2022-12-18T15:02:52;0.80;99.90
27667;DHT22;15074;50.940;5.282;2022-12-18T15:07:51;0.90;99.90
27667;DHT22;15074;50.940;5.282;2022-12-18T15:10:28;1.00;99.90
27667;DHT22;15074;50.940;5.282;2022-12-18T15:25:40;1.00;99.90
27667;DHT22;15074;50.940;5.282;2022-12-18T15:28:19;1.10;99.90
27667;DHT22;15074;50.940;5.282;2022-12-18T15:33:36;1.10;99.90
27667;DHT22;15074;50.940;5.282;2022-12-18T15:36:07;1.10;99.90
27667;DHT22;15074;50.940;5.282;2022-12-18T15:38:34;1.10;99.90
27667;DHT22;15074;50.940;5.282;2022-12-18T15:41:00;1.10;99.90
27667;DHT22;15074;50.940;5.282;2022-12-18T15:43:26;1.10;99.90
27667;DHT22;15074;50.940;5.282;2022-12-18T15:46:09;1.10;99.90
27667;DHT22;15074;50.940;5.282;2022-12-18T15:48:50;1.10;99.90
27667;DHT22;15074;50.940;5.282;2022-12-18T15:53:56;1.20;99.90
27667;DHT22;15074;50.940;5.282;2022-12-18T15:56:23;1.30;99.90
27667;DHT22;15074;50.940;5.282;2022-12-18T15:59:16;1.30;99.90
27667;DHT22;15074;50.940;5.282;2022-12-18T16:01:44;1.30;99.90
27667;DHT22;15074;50.940;5.282;2022-12-18T16:04:11;1.30;99.90
27667;DHT22;15074;50.940;5.282;2022-12-18T16:06:57;1.30;99.90
27667;DHT22;15074;50.940;5.282;2022-12-18T16:09:56;1.30;99.90
27667;DHT22;15074;50.940;5.282;2022-12-18T16:12:56;1.30;99.90
27667;DHT22;15074;50.940;5.282;2022-12-18T16:16:03;1.30;99.90
27667;DHT22;15074;50.940;5.282;2022-12-18T16:18:29;1.30;99.90
27667;DHT22;15074;50.940;5.282;2022-12-18T16:20:54;1.30;99.90
27667;DHT22;15074;50.940;5.282;2022-12-18T16:23:20;1.40;99.90
27667;DHT22;15074;50.940;5.282;2022-12-18T16:25:46;1.30;99.90
27667;DHT22;15074;50.940;5.282;2022-12-18T16:28:12;1.30;99.90
27667;DHT22;15074;50.940;5.282;2022-12-18T16:30:37;1.40;99.90
27667;DHT22;15074;50.940;5.282;2022-12-18T16:33:03;1.40;99.90
27667;DHT22;15074;50.940;5.282;2022-12-18T16:35:29;1.40;99.90
27667;DHT22;15074;50.940;5.282;2022-12-18T16:37:58;1.30;99.90
27667;DHT22;15074;50.940;5.282;2022-12-18T16:40:32;1.40;99.90
27667;DHT22;15074;50.940;5.282;2022-12-18T16:42:58;1.30;99.90
27667;DHT22;15074;50.940;5.282;2022-12-18T16:45:24;1.40;99.90
27667;DHT22;15074;50.940;5.282;2022-12-18T16:47:50;1.50;99.90
27667;DHT22;15074;50.940;5.282;2022-12-18T16:50:16;1.40;99.90
27667;DHT22;15074;50.940;5.282;2022-12-18T16:52:42;1.40;99.90
27667;DHT22;15074;50.940;5.282;2022-12-18T16:55:08;1.40;99.90
27667;DHT22;15074;50.940;5.282;2022-12-18T16:57:34;1.40;99.90
27667;DHT22;15074;50.940;5.282;2022-12-18T17:00:00;1.40;99.90
27667;DHT22;15074;50.940;5.282;2022-12-18T17:02:26;1.50;99.90
27667;DHT22;15074;50.940;5.282;2022-12-18T17:05:13;1.50;99.90
27667;DHT22;15074;50.940;5.282;2022-12-18T17:07:47;1.50;99.90
27667;DHT22;15074;50.940;5.282;2022-12-18T17:10:21;1.50;99.90
27667;DHT22;15074;50.940;5.282;2022-12-18T17:12:50;1.50;99.90
27667;DHT22;15074;50.940;5.282;2022-12-18T17:15:15;1.60;99.90
27667;DHT22;15074;50.940;5.282;2022-12-18T17:17:41;1.50;99.90
27667;DHT22;15074;50.940;5.282;2022-12-18T17:20:07;1.50;99.90
27667;DHT22;15074;50.940;5.282;2022-12-18T17:22:33;1.60;99.90
27667;DHT22;15074;50.940;5.282;2022-12-18T17:24:59;1.70;99.90
27667;DHT22;15074;50.940;5.282;2022-12-18T17:27:25;1.60;99.90
27667;DHT22;15074;50.940;5.282;2022-12-18T17:29:50;1.60;99.90
27667;DHT22;15074;50.940;5.282;2022-12-18T17:32:17;1.60;99.90
27667;DHT22;15074;50.940;5.282;2022-12-18T17:34:43;1.60;99.90
27667;DHT22;15074;50.940;5.282;2022-12-18T17:37:10;1.60;99.90
27667;DHT22;15074;50.940;5.282;2022-12-18T17:39:37;1.60;99.90
27667;DHT22;15074;50.940;5.282;2022-12-18T17:42:03;1.70;99.90
27667;DHT22;15074;50.940;5.282;2022-12-18T17:44:29;1.70;99.90
27667;DHT22;15074;50.940;5.282;2022-12-18T17:46:56;1.70;99.90
27667;DHT22;15074;50.940;5.282;2022-12-18T17:49:22;1.70;99.90
27667;DHT22;15074;50.940;5.282;2022-12-18T17:51:49;1.80;99.90
27667;DHT22;15074;50.940;5.282;2022-12-18T17:54:16;1.70;99.90
27667;DHT22;15074;50.940;5.282;2022-12-18T17:56:41;1.70;99.90
27667;DHT22;15074;50.940;5.282;2022-12-18T17:59:13;1.70;99.90
27667;DHT22;15074;50.940;5.282;2022-12-18T18:01:47;1.80;99.90
27667;DHT22;15074;50.940;5.282;2022-12-18T18:05:00;1.80;99.90
27667;DHT22;15074;50.940;5.282;2022-12-18T18:07:25;1.90;99.90
27667;DHT22;15074;50.940;5.282;2022-12-18T18:09:51;1.90;99.90
27667;DHT22;15074;50.940;5.282;2022-12-18T18:12:16;2.00;99.90
27667;DHT22;15074;50.940;5.282;2022-12-18T18:15:00;2.00;99.90